Time;durP1;ratioP1;P1;durP2;ratioP2;P2;SDS_P1;SDS_P2;PMS_P1;PMS_P2;Temp;Humidity;BMP_temperature;BMP_pressure;BME280_temperature;BME280_humidity;BME280_pressure;Samples;Min_cycle;Max_cycle;Signal;HPM_P1;HPM_P2
2023/03/30 00:00:17;;;;;;;1.13;0.70;;;;;;;9.75;79.41;100640.25;5011738;28;20037;-46
2023/03/30 00:02:49;;;;;;;1.80;0.45;;;;;;;9.87;79.70;100636.97;5011733;28;20122;-41
2023/03/30 00:05:19;;;;;;;1.40;0.70;;;;;;;10.33;79.17;100631.59;5013675;28;20033;-42
2023/03/30 00:07:46;;;;;;;2.92;0.80;;;;;;;10.11;78.28;100632.84;5013802;28;20033;-41
2023/03/30 00:10:18;;;;;;;1.85;0.60;;;;;;;10.17;78.50;100630.16;5014125;28;20057;-40
2023/03/30 00:12:46;;;;;;;2.00;0.65;;;;;;;9.70;80.71;100641.91;5014364;28;20422;-40
2023/03/30 00:15:15;;;;;;;1.17;0.65;;;;;;;9.58;81.22;100640.88;5013781;28;20103;-40
2023/03/30 00:17:42;;;;;;;1.30;0.68;;;;;;;9.48;84.19;100641.25;5014275;28;20536;-40
2023/03/30 00:20:10;;;;;;;1.10;0.50;;;;;;;9.28;84.98;100648.44;5013169;28;20427;-41
2023/03/30 00:22:41;;;;;;;1.27;0.60;;;;;;;9.75;83.70;100652.81;5014034;28;20026;-41
2023/03/30 00:25:10;;;;;;;1.85;0.70;;;;;;;10.15;79.86;100653.59;5013616;28;20036;-40
2023/03/30 00:27:37;;;;;;;2.65;0.90;;;;;;;9.71;83.45;100649.69;5013896;28;20465;-41
2023/03/30 00:30:05;;;;;;;2.55;0.77;;;;;;;9.93;83.85;100650.31;5013691;28;20030;-41
2023/03/30 00:32:33;;;;;;;1.90;0.40;;;;;;;9.43;85.01;100660.56;5013638;28;20036;-40
2023/03/30 00:35:00;;;;;;;0.55;0.45;;;;;;;9.48;83.74;100662.63;5013484;28;20387;-41
2023/03/30 00:37:27;;;;;;;3.33;0.65;;;;;;;9.86;82.25;100656.72;5013712;28;20037;-40
2023/03/30 00:39:53;;;;;;;3.05;1.15;;;;;;;9.51;83.92;100662.25;4993496;28;20490;-40
2023/03/30 00:42:23;;;;;;;4.10;1.50;;;;;;;9.76;84.05;100663.28;4993722;28;20027;-40
2023/03/30 00:45:07;;;;;;;1.83;0.60;;;;;;;9.94;82.87;100664.53;4993452;28;20383;-41
2023/03/30 00:47:45;;;;;;;2.30;0.87;;;;;;;9.61;84.41;100665.34;4993701;28;20040;-41
2023/03/30 00:50:12;;;;;;;1.27;0.70;;;;;;;9.34;86.83;100663.66;5005593;28;20034;-41
2023/03/30 00:52:42;;;;;;;1.05;0.63;;;;;;;8.96;86.80;100664.97;5007856;28;20497;-41
2023/03/30 00:55:10;;;;;;;0.88;0.50;;;;;;;9.11;86.78;100666.66;5012015;28;20129;-40
2023/03/30 00:57:40;;;;;;;1.30;0.60;;;;;;;9.25;85.15;100663.81;5008656;28;20058;-41
2023/03/30 01:00:09;;;;;;;1.50;0.68;;;;;;;8.94;87.53;100668.88;5012428;28;20482;-40
2023/03/30 01:02:42;;;;;;;2.10;0.57;;;;;;;9.03;87.66;100673.00;5012596;28;20490;-40
2023/03/30 01:05:10;;;;;;;1.00;0.52;;;;;;;9.20;85.22;100663.59;4995286;28;20033;-40
2023/03/30 01:07:40;;;;;;;1.58;0.60;;;;;;;8.70;86.96;100664.84;4993017;28;20467;-39
2023/03/30 01:10:09;;;;;;;2.05;0.77;;;;;;;8.77;88.76;100663.03;4993248;28;20050;-39
2023/03/30 01:12:36;;;;;;;2.55;0.82;;;;;;;8.94;88.07;100666.19;4996930;28;20022;-40
2023/03/30 01:15:03;;;;;;;1.80;0.68;;;;;;;9.17;86.86;100674.69;5012333;28;20057;-40
2023/03/30 01:17:44;;;;;;;1.23;0.50;;;;;;;8.97;86.75;100669.28;5012689;28;20041;-40
2023/03/30 01:20:39;;;;;;;1.08;0.70;;;;;;;8.64;87.26;100666.44;5001196;28;20022;-40
2023/03/30 01:23:18;;;;;;;1.20;0.65;;;;;;;8.71;86.92;100664.63;5005526;28;20030;-41
2023/03/30 01:26:27;;;;;;;1.05;0.50;;;;;;;8.41;88.34;100665.91;5011950;28;20120;-40
2023/03/30 01:29:04;;;;;;;2.38;0.73;;;;;;;8.73;86.39;100665.28;5012586;28;20037;-40
2023/03/30 01:31:48;;;;;;;1.33;0.65;;;;;;;8.70;86.46;100667.50;5009778;28;20072;-40
2023/03/30 01:34:48;;;;;;;1.13;0.68;;;;;;;8.45;87.43;100661.84;5007767;28;20026;-40
2023/03/30 01:37:23;;;;;;;2.00;0.77;;;;;;;8.59;87.72;100670.72;5011376;28;20542;-40
2023/03/30 01:40:20;;;;;;;2.03;0.60;;;;;;;8.42;87.37;100670.22;5008579;28;20022;-40
2023/03/30 01:43:07;;;;;;;3.22;1.05;;;;;;;8.51;87.71;100668.25;5003620;28;20475;-40
2023/03/30 01:45:52;;;;;;;2.25;0.63;;;;;;;8.50;86.23;100670.09;5011825;28;20105;-40
2023/03/30 01:48:36;;;;;;;1.42;0.90;;;;;;;8.35;86.41;100670.16;5012726;28;20018;-40
2023/03/30 01:51:08;;;;;;;1.67;0.80;;;;;;;8.45;87.01;100668.00;5005238;28;20022;-40
2023/03/30 01:53:55;;;;;;;1.33;0.73;;;;;;;7.98;89.94;100670.50;5011894;28;20094;-40
2023/03/30 01:56:34;;;;;;;1.55;0.60;;;;;;;8.24;89.24;100676.03;5011572;28;20049;-40
2023/03/30 01:59:14;;;;;;;1.25;0.77;;;;;;;8.37;88.64;100676.16;5000562;28;20042;-40
2023/03/30 02:01:48;;;;;;;1.05;0.80;;;;;;;8.12;89.80;100680.25;4991982;28;20026;-40
2023/03/30 02:04:18;;;;;;;1.55;0.90;;;;;;;8.19;89.15;100673.13;4992510;28;20475;-40
2023/03/30 02:06:51;;;;;;;2.28;1.10;;;;;;;8.51;88.01;100671.72;4992293;28;20088;-40
2023/03/30 02:09:22;;;;;;;2.05;0.70;;;;;;;8.24;88.67;100680.53;4992912;28;20052;-40
2023/03/30 02:11:52;;;;;;;2.63;1.10;;;;;;;8.15;89.76;100687.84;4992258;28;20475;-40
2023/03/30 02:14:25;;;;;;;1.98;1.00;;;;;;;8.30;88.39;100687.78;4992261;28;20065;-41
2023/03/30 02:16:57;;;;;;;1.40;0.88;;;;;;;8.25;88.36;100692.84;4992602;28;20494;-41
2023/03/30 02:19:24;;;;;;;1.60;0.75;;;;;;;7.89;89.95;100693.81;4992780;28;20037;-42
2023/03/30 02:21:50;;;;;;;1.25;0.68;;;;;;;8.24;87.75;100693.88;4992467;28;20024;-40
2023/03/30 02:24:21;;;;;;;2.15;1.02;;;;;;;8.40;87.46;100698.94;4992547;28;20026;-40
2023/03/30 02:26:50;;;;;;;1.13;0.60;;;;;;;8.08;88.57;100689.66;4992173;28;20042;-40
2023/03/30 02:29:18;;;;;;;0.90;0.60;;;;;;;8.31;87.16;100695.56;4992693;28;20100;-40
2023/03/30 02:31:47;;;;;;;0.73;0.45;;;;;;;8.23;86.44;100700.25;4991854;28;20386;-40
2023/03/30 02:34:31;;;;;;;1.70;0.60;;;;;;;8.15;85.51;100702.00;4991983;28;20030;-39
2023/03/30 02:37:34;;;;;;;1.10;0.60;;;;;;;7.80;87.77;100705.63;4992129;28;20081;-40
2023/03/30 02:40:46;;;;;;;1.67;0.80;;;;;;;7.42;89.06;100711.16;4992585;28;20034;-40
2023/03/30 02:43:19;;;;;;;0.50;0.50;;;;;;;7.35;89.44;100716.44;4993110;28;20146;-40
2023/03/30 02:45:48;;;;;;;1.33;0.60;;;;;;;7.56;88.06;100712.16;4995393;28;20030;-40
2023/03/30 02:48:26;;;;;;;2.38;0.73;;;;;;;7.48;89.57;100720.25;5015342;28;20037;-40
2023/03/30 02:51:40;;;;;;;1.83;0.70;;;;;;;7.27;90.77;100726.34;5015447;28;20072;-40
2023/03/30 02:54:09;;;;;;;0.63;0.60;;;;;;;7.54;89.99;100720.31;4952164;29;20114;-40
2023/03/30 02:56:54;;;;;;;0.55;0.45;;;;;;;7.56;89.26;100718.31;4999620;28;20042;-40
2023/03/30 02:59:32;;;;;;;1.20;0.60;;;;;;;7.57;90.00;100727.94;5014353;28;20028;-40
2023/03/30 03:02:10;;;;;;;2.08;0.70;;;;;;;7.56;90.25;100726.28;5014890;28;20104;-40
2023/03/30 03:04:42;;;;;;;2.45;0.95;;;;;;;7.23;91.94;100733.09;5014787;28;20487;-40
2023/03/30 03:07:11;;;;;;;1.70;0.88;;;;;;;7.12;92.22;100737.88;5014883;28;20541;-40
2023/03/30 03:09:37;;;;;;;2.38;0.95;;;;;;;6.97;93.16;100738.91;5014733;28;20461;-40
2023/03/30 03:12:05;;;;;;;1.42;0.70;;;;;;;6.99;93.31;100743.00;5014821;28;20104;-40
2023/03/30 03:14:31;;;;;;;1.75;1.05;;;;;;;7.17;92.96;100745.31;5014624;28;20025;-40
2023/03/30 03:16:58;;;;;;;1.20;1.00;;;;;;;6.97;93.91;100750.38;5000142;28;20599;-40
2023/03/30 03:19:25;;;;;;;1.98;1.05;;;;;;;7.05;94.11;100747.63;4995132;28;20054;-40
2023/03/30 03:21:52;;;;;;;2.35;1.30;;;;;;;6.84;94.72;100759.00;4995129;28;20041;-40
2023/03/30 03:24:18;;;;;;;2.10;1.35;;;;;;;6.92;94.67;100767.88;4995457;28;20537;-40
2023/03/30 03:26:44;;;;;;;2.20;1.48;;;;;;;7.17;94.37;100766.59;4994681;28;20038;-39
2023/03/30 03:29:11;;;;;;;2.60;1.50;;;;;;;7.05;94.23;100765.38;4994974;28;20030;-39
2023/03/30 03:31:38;;;;;;;1.90;1.52;;;;;;;7.10;93.97;100771.00;5009669;28;20026;-40
2023/03/30 03:34:05;;;;;;;4.13;2.25;;;;;;;7.04;94.60;100777.06;5005868;28;20038;-40
2023/03/30 03:36:32;;;;;;;3.03;1.77;;;;;;;7.17;93.96;100782.56;5004853;28;20045;-40
2023/03/30 03:38:58;;;;;;;2.55;2.15;;;;;;;6.97;94.89;100779.63;4994823;28;20108;-40
2023/03/30 03:41:25;;;;;;;2.75;1.92;;;;;;;6.87;95.18;100787.88;5006907;28;20030;-40
2023/03/30 03:43:51;;;;;;;2.20;1.90;;;;;;;6.78;95.61;100788.16;5014101;28;20391;-40
2023/03/30 03:46:18;;;;;;;4.72;2.08;;;;;;;6.93;95.43;100794.31;5013823;28;20061;-40
2023/03/30 03:48:45;;;;;;;3.03;2.28;;;;;;;6.92;95.38;100795.31;5014335;28;20073;-40
2023/03/30 03:51:11;;;;;;;3.60;2.22;;;;;;;6.81;96.20;100799.25;5014178;28;20036;-41
2023/03/30 03:53:38;;;;;;;2.88;2.00;;;;;;;6.75;96.46;100810.63;5001488;28;20026;-41
2023/03/30 03:56:06;;;;;;;2.10;1.83;;;;;;;6.79;96.48;100811.09;4992883;28;20050;-41
2023/03/30 03:58:32;;;;;;;3.00;2.22;;;;;;;6.95;95.29;100816.25;4994291;28;20022;-41
2023/03/30 04:01:00;;;;;;;3.17;1.85;;;;;;;6.75;96.04;100813.28;4994378;28;20505;-41
2023/03/30 04:03:27;;;;;;;2.80;2.10;;;;;;;6.77;95.58;100815.75;4994620;28;20431;-41
2023/03/30 04:05:53;;;;;;;2.15;1.75;;;;;;;6.81;96.26;100819.72;4993791;28;20080;-41
2023/03/30 04:08:20;;;;;;;2.17;1.38;;;;;;;6.70;96.50;100822.81;4994317;28;20023;-41
2023/03/30 04:10:46;;;;;;;2.40;1.92;;;;;;;6.90;95.40;100823.97;4994173;28;20415;-41
2023/03/30 04:13:12;;;;;;;2.83;1.98;;;;;;;6.76;95.64;100830.06;4994197;28;20138;-41
2023/03/30 04:15:39;;;;;;;2.78;2.30;;;;;;;6.91;95.22;100824.78;4993747;28;20379;-41
2023/03/30 04:18:07;;;;;;;3.42;2.35;;;;;;;6.94;95.00;100830.56;4994114;28;20475;-41
2023/03/30 04:20:33;;;;;;;3.78;2.13;;;;;;;6.85;95.03;100834.31;4994032;28;20034;-41
2023/03/30 04:23:02;;;;;;;2.83;2.00;;;;;;;6.91;94.49;100840.75;4993818;28;20064;-40
2023/03/30 04:25:29;;;;;;;2.75;2.22;;;;;;;6.68;96.38;100846.94;4993707;28;20030;-41
2023/03/30 04:27:56;;;;;;;3.20;2.28;;;;;;;7.06;94.66;100855.72;4993682;28;20482;-41
2023/03/30 04:30:23;;;;;;;4.15;2.58;;;;;;;6.97;94.94;100858.63;5007737;28;20036;-41
2023/03/30 04:33:10;;;;;;;3.25;2.88;;;;;;;7.07;93.96;100860.03;5007569;28;20028;-41
2023/03/30 04:35:36;;;;;;;4.00;2.78;;;;;;;6.82;96.25;100869.25;4993096;28;20042;-41
2023/03/30 04:38:02;;;;;;;3.95;2.33;;;;;;;6.81;96.10;100871.09;4993849;28;20042;-41
2023/03/30 04:40:29;;;;;;;3.92;2.10;;;;;;;6.70;96.76;100873.34;5011506;28;20036;-41
2023/03/30 04:43:00;;;;;;;3.45;1.80;;;;;;;6.71;96.81;100872.34;5012664;28;20030;-41
2023/03/30 04:45:28;;;;;;;2.85;1.80;;;;;;;6.80;96.55;100882.75;5011559;28;20030;-42
2023/03/30 04:47:54;;;;;;;2.45;1.55;;;;;;;6.66;95.86;100874.72;5012181;28;20030;-40
2023/03/30 04:50:20;;;;;;;2.08;1.70;;;;;;;6.60;95.97;100890.38;5012634;28;20510;-40
2023/03/30 04:52:47;;;;;;;2.45;1.42;;;;;;;6.62;95.39;100890.22;4994777;28;20065;-41
2023/03/30 04:55:13;;;;;;;3.17;1.40;;;;;;;6.76;95.49;100893.91;5012573;28;20052;-41
2023/03/30 04:57:39;;;;;;;1.77;1.30;;;;;;;6.76;94.60;100891.25;5012768;28;20038;-41
2023/03/30 05:00:08;;;;;;;2.20;1.30;;;;;;;6.60;95.24;100892.22;5012886;28;20026;-41
2023/03/30 05:02:35;;;;;;;0.90;0.75;;;;;;;6.53;94.21;100883.31;5010811;28;20037;-41
2023/03/30 05:05:01;;;;;;;2.88;0.98;;;;;;;6.55;94.25;100890.13;5012290;28;20026;-41
2023/03/30 05:07:28;;;;;;;1.92;1.10;;;;;;;6.54;94.89;100895.59;5012280;28;20030;-42
2023/03/30 05:09:54;;;;;;;2.78;1.20;;;;;;;6.57;93.60;100888.09;5012507;28;20022;-41
2023/03/30 05:12:21;;;;;;;1.77;1.00;;;;;;;6.55;93.73;100895.44;5012902;28;20034;-42
2023/03/30 05:14:47;;;;;;;1.80;0.90;;;;;;;6.27;94.85;100892.47;5012609;28;20087;-41
2023/03/30 05:17:13;;;;;;;1.02;0.90;;;;;;;6.30;95.33;100896.59;5013123;28;20466;-41
2023/03/30 05:19:40;;;;;;;1.42;1.00;;;;;;;6.28;95.62;100903.94;5012880;28;20030;-40
2023/03/30 05:22:06;;;;;;;1.10;0.73;;;;;;;6.22;95.43;100901.97;5012437;28;20037;-41
2023/03/30 05:24:33;;;;;;;2.72;1.02;;;;;;;6.22;94.48;100907.28;5012395;28;20394;-41
2023/03/30 05:27:01;;;;;;;0.70;0.60;;;;;;;6.23;94.52;100906.28;5012512;28;20069;-40
2023/03/30 05:29:27;;;;;;;3.03;0.88;;;;;;;6.13;94.86;100911.81;5012431;28;20037;-41
2023/03/30 05:31:53;;;;;;;0.82;0.70;;;;;;;6.24;93.30;100913.25;5012265;28;20022;-40
2023/03/30 05:34:19;;;;;;;2.10;1.00;;;;;;;6.29;93.25;100921.53;4993894;28;20463;-41
2023/03/30 05:36:46;;;;;;;1.08;0.65;;;;;;;6.19;93.03;100911.13;4992923;28;20097;-41
2023/03/30 05:39:13;;;;;;;0.85;0.63;;;;;;;6.23;92.60;100911.63;4992695;28;20027;-41
2023/03/30 05:41:39;;;;;;;2.53;0.98;;;;;;;6.26;92.25;100919.22;4992693;28;20030;-41
2023/03/30 05:44:06;;;;;;;0.60;0.47;;;;;;;6.34;91.40;100919.19;4992563;28;20061;-40
2023/03/30 05:46:32;;;;;;;1.85;0.60;;;;;;;6.48;90.51;100926.38;4992201;28;20403;-41
2023/03/30 05:48:58;;;;;;;1.13;0.60;;;;;;;6.37;91.19;100928.63;4992621;28;20138;-41
2023/03/30 05:51:25;;;;;;;3.30;0.63;;;;;;;6.34;91.25;100925.31;4992698;28;20018;-41
2023/03/30 05:53:51;;;;;;;1.58;0.73;;;;;;;6.36;91.65;100922.47;4992430;28;20030;-41
2023/03/30 05:56:17;;;;;;;1.00;0.50;;;;;;;6.45;90.57;100929.41;4992177;28;20061;-40
2023/03/30 05:58:43;;;;;;;1.30;0.60;;;;;;;6.38;90.41;100928.44;4992250;28;20022;-40
2023/03/30 06:01:12;;;;;;;1.90;0.50;;;;;;;6.37;90.12;100934.75;4992371;28;20093;-41
2023/03/30 06:03:38;;;;;;;0.55;0.40;;;;;;;6.52;89.30;100934.84;4992380;28;20037;-41
2023/03/30 06:06:06;;;;;;;0.88;0.47;;;;;;;6.49;90.05;100937.84;4991717;28;20149;-41
2023/03/30 06:08:33;;;;;;;0.82;0.52;;;;;;;6.45;90.39;100932.06;4992197;28;20545;-41
2023/03/30 06:11:00;;;;;;;0.63;0.55;;;;;;;6.54;90.16;100935.47;4992294;28;20037;-41
2023/03/30 06:13:26;;;;;;;0.90;0.30;;;;;;;6.39;90.11;100935.44;4992433;28;20061;-41
2023/03/30 06:15:53;;;;;;;0.63;0.40;;;;;;;6.70;89.49;100938.03;4991974;28;20030;-41
2023/03/30 06:18:19;;;;;;;1.25;0.30;;;;;;;6.61;89.86;100942.59;4993292;28;20014;-41
2023/03/30 06:20:47;;;;;;;0.63;0.40;;;;;;;6.70;89.50;100934.53;4996173;28;20037;-41
2023/03/30 06:23:15;;;;;;;4.13;0.90;;;;;;;6.77;89.69;100943.44;4996243;28;20033;-41
2023/03/30 06:25:45;;;;;;;0.70;0.70;;;;;;;6.63;89.81;100947.72;4995743;28;20418;-41
2023/03/30 06:28:11;;;;;;;1.50;0.90;;;;;;;6.75;89.75;100959.59;4996096;28;20411;-40
2023/03/30 06:30:38;;;;;;;0.82;0.70;;;;;;;6.76;89.68;100955.94;4995824;28;20046;-41
2023/03/30 06:33:04;;;;;;;1.33;0.77;;;;;;;6.75;90.11;100948.97;4995772;28;20038;-41
2023/03/30 06:35:31;;;;;;;0.93;0.80;;;;;;;6.73;90.49;100960.78;4995591;28;20027;-40
2023/03/30 06:37:57;;;;;;;1.65;0.70;;;;;;;6.56;91.60;100955.59;4995687;28;20038;-42
2023/03/30 06:40:24;;;;;;;0.95;0.93;;;;;;;6.63;91.17;100961.03;4995702;28;20125;-41
2023/03/30 06:42:50;;;;;;;1.00;0.70;;;;;;;6.72;91.22;100965.28;4995818;28;20506;-41
2023/03/30 06:45:16;;;;;;;0.60;0.60;;;;;;;6.75;90.44;100969.41;5005193;28;20040;-41
2023/03/30 06:47:43;;;;;;;0.70;0.60;;;;;;;6.68;90.59;100963.97;5015150;28;20397;-41
2023/03/30 06:50:09;;;;;;;1.00;0.80;;;;;;;6.65;91.05;100971.47;5014781;28;20028;-41
2023/03/30 06:52:37;;;;;;;2.95;1.30;;;;;;;6.57;91.23;100967.88;4995633;28;20030;-41
2023/03/30 06:55:04;;;;;;;1.73;1.33;;;;;;;6.51;91.67;100968.59;4994975;28;20050;-41
2023/03/30 06:57:31;;;;;;;1.55;1.23;;;;;;;6.43;91.88;100973.13;4995803;28;20050;-41
2023/03/30 06:59:57;;;;;;;1.17;0.98;;;;;;;6.33;92.65;100960.91;4995548;28;20026;-41
2023/03/30 07:02:24;;;;;;;3.83;1.08;;;;;;;6.42;92.29;100961.66;4995996;28;20034;-41
2023/03/30 07:04:51;;;;;;;1.10;1.00;;;;;;;6.65;91.08;100964.31;5014634;28;20454;-41
2023/03/30 07:07:18;;;;;;;2.25;1.05;;;;;;;6.31;92.02;100965.53;5015002;28;20029;-41
2023/03/30 07:09:45;;;;;;;1.90;1.10;;;;;;;6.47;91.59;100967.28;5014527;28;20478;-41
2023/03/30 07:12:11;;;;;;;1.08;0.75;;;;;;;6.45;90.52;100971.13;5014764;28;20125;-41
2023/03/30 07:14:37;;;;;;;0.65;0.65;;;;;;;6.30;91.50;100976.34;5014280;28;20103;-41
2023/03/30 07:17:03;;;;;;;2.10;0.90;;;;;;;6.49;90.95;100975.91;5014605;28;20034;-41
2023/03/30 07:19:29;;;;;;;1.83;0.70;;;;;;;6.26;91.15;100975.03;5014761;28;20029;-41
2023/03/30 07:21:56;;;;;;;1.58;0.68;;;;;;;6.19;91.84;100985.53;5014655;28;20022;-41
2023/03/30 07:24:22;;;;;;;0.95;0.77;;;;;;;6.12;92.66;100978.44;5014126;28;20033;-41
2023/03/30 07:26:48;;;;;;;0.95;0.70;;;;;;;6.25;91.93;100982.19;5010564;28;20066;-41
2023/03/30 07:29:15;;;;;;;0.80;0.73;;;;;;;6.20;91.92;100986.38;4999245;28;20106;-42
2023/03/30 07:31:41;;;;;;;0.85;0.50;;;;;;;6.29;90.77;100991.47;4994795;28;20108;-41
2023/03/30 07:34:08;;;;;;;0.70;0.60;;;;;;;6.43;90.06;100999.69;4994278;28;20392;-41
2023/03/30 07:36:34;;;;;;;0.73;0.50;;;;;;;6.48;89.60;101000.84;4994494;28;20428;-41
2023/03/30 07:39:00;;;;;;;1.42;0.63;;;;;;;6.79;88.21;100997.31;4994809;28;20037;-41
2023/03/30 07:41:26;;;;;;;1.65;0.60;;;;;;;6.71;88.27;101008.00;4994770;28;20027;-42
2023/03/30 07:43:53;;;;;;;0.70;0.63;;;;;;;6.75;87.44;101014.63;4994319;28;20022;-42
2023/03/30 07:46:19;;;;;;;0.52;0.40;;;;;;;6.61;87.70;101014.41;4994406;28;20101;-42
2023/03/30 07:48:45;;;;;;;0.77;0.60;;;;;;;6.65;86.87;101019.34;4994629;28;20034;-41
2023/03/30 07:51:13;;;;;;;0.70;0.40;;;;;;;6.47;87.33;101031.09;4994490;28;20494;-41
2023/03/30 07:53:40;;;;;;;1.30;0.47;;;;;;;6.56;87.42;101029.22;4994641;28;20491;-41
2023/03/30 07:56:07;;;;;;;0.45;0.40;;;;;;;6.29;88.59;101034.00;4994309;28;20399;-41
2023/03/30 07:58:33;;;;;;;0.60;0.57;;;;;;;6.11;89.56;101037.88;4994375;28;20030;-41
2023/03/30 08:01:01;;;;;;;1.05;0.70;;;;;;;5.92;91.16;101031.97;4994225;28;20494;-42
2023/03/30 08:03:30;;;;;;;1.17;0.60;;;;;;;6.09;90.54;101038.06;4999356;28;20040;-39
2023/03/30 08:06:04;;;;;;;1.63;0.80;;;;;;;6.26;89.17;101044.97;5013473;28;20030;-39
2023/03/30 08:08:32;;;;;;;0.95;0.60;;;;;;;6.30;88.87;101051.63;5013719;28;20030;-42
2023/03/30 08:10:59;;;;;;;1.20;0.80;;;;;;;6.34;88.81;101057.41;5013702;28;20089;-42
2023/03/30 08:13:26;;;;;;;1.40;0.80;;;;;;;6.43;87.63;101069.66;5013861;28;20029;-40
2023/03/30 08:15:53;;;;;;;1.25;0.93;;;;;;;6.34;88.11;101068.06;5013493;28;20549;-40
2023/03/30 08:18:20;;;;;;;1.60;1.20;;;;;;;6.31;88.26;101074.53;5013568;28;20428;-40
2023/03/30 08:20:50;;;;;;;1.48;0.82;;;;;;;6.53;88.00;101070.28;5013530;28;20395;-40
2023/03/30 08:23:17;;;;;;;2.17;1.00;;;;;;;6.32;88.28;101070.03;5013674;28;20034;-41
2023/03/30 08:25:44;;;;;;;1.13;1.02;;;;;;;6.33;88.17;101077.03;5013178;28;20032;-40
2023/03/30 08:28:11;;;;;;;1.70;0.95;;;;;;;6.40;87.62;101080.66;5013381;28;20029;-39
2023/03/30 08:30:37;;;;;;;1.10;0.90;;;;;;;6.33;86.86;101077.03;5013139;28;20033;-39
2023/03/30 08:33:03;;;;;;;1.60;0.80;;;;;;;6.42;86.96;101081.31;5005327;28;20055;-39
2023/03/30 08:35:29;;;;;;;0.93;0.88;;;;;;;6.41;87.35;101084.97;4993466;28;20061;-41
2023/03/30 08:37:56;;;;;;;2.53;0.90;;;;;;;6.52;86.91;101081.94;5009239;28;20506;-40
2023/03/30 08:40:22;;;;;;;1.00;0.90;;;;;;;6.44;87.35;101086.44;5012259;28;20089;-41
2023/03/30 08:43:03;;;;;;;1.05;0.95;;;;;;;6.56;86.98;101077.09;5013109;28;20022;-41
2023/03/30 08:45:40;;;;;;;1.23;0.88;;;;;;;6.59;87.27;101085.53;5012652;28;20034;-41
2023/03/30 08:48:32;;;;;;;1.20;0.77;;;;;;;6.67;87.38;101084.69;5013050;28;20108;-41
2023/03/30 08:51:11;;;;;;;1.20;0.65;;;;;;;6.63;87.62;101085.22;5012291;28;20029;-42
2023/03/30 08:53:37;;;;;;;1.00;0.60;;;;;;;6.75;87.51;101089.13;5012875;28;20034;-41
2023/03/30 08:56:22;;;;;;;1.35;0.70;;;;;;;6.82;87.04;101082.09;5011546;28;20045;-41
2023/03/30 08:59:04;;;;;;;0.95;0.55;;;;;;;7.12;86.00;101088.41;5012892;28;20030;-41
2023/03/30 09:01:57;;;;;;;0.75;0.50;;;;;;;6.99;86.48;101082.81;5012594;28;20030;-40
2023/03/30 09:04:26;;;;;;;0.45;0.38;;;;;;;6.98;85.68;101091.81;5012131;28;20041;-41
2023/03/30 09:06:54;;;;;;;0.40;0.40;;;;;;;7.15;85.14;101083.53;5012403;28;20080;-41
2023/03/30 09:09:24;;;;;;;0.55;0.40;;;;;;;7.05;84.99;101085.63;5012654;28;20467;-41
2023/03/30 09:12:08;;;;;;;0.52;0.40;;;;;;;6.95;85.22;101081.53;5011686;28;20029;-41
2023/03/30 09:14:41;;;;;;;0.57;0.38;;;;;;;6.88;85.67;101089.38;5011974;28;20038;-41
2023/03/30 09:17:31;;;;;;;0.70;0.50;;;;;;;6.85;85.60;101089.75;5012101;28;20117;-41
2023/03/30 09:20:25;;;;;;;0.60;0.43;;;;;;;6.45;87.72;101082.81;5012251;28;20030;-41
2023/03/30 09:22:53;;;;;;;0.80;0.60;;;;;;;6.79;86.31;101095.75;5011547;28;20491;-41
2023/03/30 09:25:31;;;;;;;0.55;0.50;;;;;;;6.90;86.46;101089.22;5011527;28;20036;-40
2023/03/30 09:28:23;;;;;;;0.70;0.50;;;;;;;7.07;85.81;101096.09;5011968;28;20494;-41
2023/03/30 09:31:39;;;;;;;1.55;0.50;;;;;;;7.02;85.76;101093.13;5012421;28;20034;-41
2023/03/30 09:34:18;;;;;;;1.25;1.00;;;;;;;6.95;86.30;101093.00;4991540;28;20052;-42
2023/03/30 09:37:00;;;;;;;1.10;0.85;;;;;;;6.82;87.22;101087.41;5008554;28;20385;-40
2023/03/30 09:39:28;;;;;;;1.33;0.73;;;;;;;6.58;88.20;101083.06;5012093;28;20060;-41
2023/03/30 09:42:17;;;;;;;0.90;0.75;;;;;;;6.49;89.65;101082.25;5011057;28;20033;-41
2023/03/30 09:45:05;;;;;;;1.65;0.70;;;;;;;6.89;88.19;101085.72;5011956;28;20032;-41
2023/03/30 09:47:37;;;;;;;1.15;0.60;;;;;;;6.83;88.12;101083.78;4996406;28;20065;-40
2023/03/30 09:50:27;;;;;;;1.02;0.63;;;;;;;6.80;87.90;101076.13;5011760;28;20030;-41
2023/03/30 09:53:03;;;;;;;1.52;0.80;;;;;;;6.58;90.06;101086.53;5011296;28;20092;-41
2023/03/30 09:55:30;;;;;;;;;;;;;;;6.80;89.33;101082.28;5011299;28;20041;-41
2023/03/30 09:58:17;;;;;;;1.42;0.60;;;;;;;6.85;88.00;101087.06;5012109;28;19913;-41
2023/03/30 10:00:44;;;;;;;0.93;0.50;;;;;;;6.93;86.78;101078.19;5011641;28;20030;-41
2023/03/30 10:03:22;;;;;;;0.30;0.30;;;;;;;6.63;87.86;101078.06;5011629;28;20410;-41
2023/03/30 10:06:06;;;;;;;0.60;0.40;;;;;;;6.67;87.50;101075.88;5010832;28;20061;-41
2023/03/30 10:08:45;;;;;;;0.30;0.30;;;;;;;6.85;86.43;101082.56;5011690;28;20030;-41
2023/03/30 10:11:11;;;;;;;0.52;0.28;;;;;;;6.82;86.51;101076.78;5010943;28;20144;-41
2023/03/30 10:13:42;;;;;;;0.30;0.30;;;;;;;6.93;86.13;101078.19;5011653;28;20034;-40
2023/03/30 10:16:33;;;;;;;1.08;0.40;;;;;;;6.88;86.74;101076.91;5011066;28;20190;-40
2023/03/30 10:19:01;;;;;;;0.88;0.60;;;;;;;6.80;85.90;101089.44;5011804;28;20481;-41
2023/03/30 10:21:45;;;;;;;0.68;0.50;;;;;;;6.67;87.40;101084.69;5011274;28;20041;-40
2023/03/30 10:24:15;;;;;;;1.15;0.47;;;;;;;6.87;87.32;101091.19;5011260;28;20022;-41
2023/03/30 10:26:46;;;;;;;1.58;0.68;;;;;;;6.79;86.89;101085.94;5010943;28;20038;-40
2023/03/30 10:29:15;;;;;;;1.48;0.82;;;;;;;6.77;87.94;101087.94;5011621;28;20037;-41
2023/03/30 10:31:52;;;;;;;1.23;0.88;;;;;;;6.87;87.72;101093.03;5011400;28;20088;-40
2023/03/30 10:34:41;;;;;;;0.95;0.90;;;;;;;6.86;88.36;101092.22;5000629;28;20053;-41
2023/03/30 10:37:27;;;;;;;0.70;0.70;;;;;;;6.77;88.98;101095.91;5012035;28;20209;-41
2023/03/30 10:39:54;;;;;;;;;;;;;;;6.66;89.41;101095.47;5011886;28;20482;-41
2023/03/30 10:42:24;;;;;;;0.52;0.50;;;;;;;6.73;89.41;101086.66;5011221;28;19917;-40
2023/03/30 10:44:54;;;;;;;0.60;0.47;;;;;;;6.55;88.89;101086.91;5010516;28;20521;-41
2023/03/30 10:47:38;;;;;;;0.75;0.60;;;;;;;6.46;90.05;101085.28;5011198;28;20073;-41
2023/03/30 10:50:26;;;;;;;0.40;0.32;;;;;;;6.57;89.50;101087.56;5011648;28;20026;-41
2023/03/30 10:53:13;;;;;;;0.40;0.40;;;;;;;6.64;88.69;101078.88;5011040;28;20039;-40
2023/03/30 10:56:01;;;;;;;1.20;0.40;;;;;;;6.74;88.07;101084.81;5011195;28;20406;-40
2023/03/30 10:58:58;;;;;;;0.60;0.30;;;;;;;6.88;87.06;101081.38;5009968;28;20030;-40
2023/03/30 11:02:20;;;;;;;1.40;0.40;;;;;;;6.82;87.25;101090.91;5011538;28;20036;-41
2023/03/30 11:04:52;;;;;;;3.72;1.20;;;;;;;6.82;87.23;101090.91;4951393;28;20101;-40
2023/03/30 11:07:55;;;;;;;5.10;1.08;;;;;;;6.86;87.95;101094.06;5004730;28;20041;-41
2023/03/30 11:10:30;;;;;;;1.60;0.77;;;;;;;6.68;88.57;101093.50;4996519;28;20505;-41
2023/03/30 11:13:31;;;;;;;1.13;0.70;;;;;;;7.06;87.21;101097.09;5001099;28;20026;-41
2023/03/30 11:16:26;;;;;;;1.05;0.95;;;;;;;7.01;87.39;101097.63;5010218;28;20034;-41
2023/03/30 11:18:56;;;;;;;1.20;1.00;;;;;;;6.84;87.87;101104.06;5013962;28;20105;-40
2023/03/30 11:21:32;;;;;;;1.92;1.30;;;;;;;6.99;87.66;101107.59;5014581;28;20038;-41
2023/03/30 11:24:08;;;;;;;1.55;1.27;;;;;;;6.93;87.30;101105.63;5013283;28;20467;-40
2023/03/30 11:26:44;;;;;;;1.50;1.33;;;;;;;7.05;87.45;101106.06;5014401;28;20064;-40
2023/03/30 11:29:15;;;;;;;;;;;;;;;6.87;88.41;101103.69;5014804;28;20034;-41
2023/03/30 11:31:58;;;;;;;2.42;1.13;;;;;;;6.74;88.87;101100.78;5014415;28;20012;-41
2023/03/30 11:35:03;;;;;;;1.17;0.80;;;;;;;6.67;89.38;101103.31;5012000;28;20030;-41
2023/03/30 11:37:53;;;;;;;1.67;0.82;;;;;;;6.64;90.56;101102.81;5013801;28;20468;-41
2023/03/30 11:40:26;;;;;;;0.80;0.75;;;;;;;6.65;90.19;101105.28;5013287;28;20049;-41
2023/03/30 11:42:52;;;;;;;2.42;0.70;;;;;;;6.63;89.84;101107.31;5013846;28;20049;-41
2023/03/30 11:45:37;;;;;;;0.85;0.60;;;;;;;6.90;89.20;101110.50;5013833;28;20367;-41
2023/03/30 11:48:20;;;;;;;0.98;0.40;;;;;;;6.90;88.70;101107.84;5013767;28;20033;-41
2023/03/30 11:51:02;;;;;;;0.65;0.50;;;;;;;6.61;88.85;101106.66;5014349;28;20029;-41
2023/03/30 11:53:53;;;;;;;0.77;0.45;;;;;;;6.68;88.94;101106.78;5013479;28;20289;-41
2023/03/30 11:57:11;;;;;;;0.45;0.43;;;;;;;6.87;88.47;101109.00;5013786;28;20084;-41
2023/03/30 11:59:50;;;;;;;0.75;0.50;;;;;;;7.02;86.85;101098.44;5001613;28;20501;-41